Time;durP1;ratioP1;P1;durP2;ratioP2;P2;SDS_P1;SDS_P2;PMS_P1;PMS_P2;Temp;Humidity;BMP_temperature;BMP_pressure;BME280_temperature;BME280_humidity;BME280_pressure;Samples;Min_cycle;Max_cycle;Signal;HPM_P1;HPM_P2
2024/01/04 00:00:44;;;;;;;0.30;0.20;;;9.70;95.60;;;;;;5008852;28;20493;-73
2024/01/04 00:03:11;;;;;;;0.30;0.10;;;9.70;95.90;;;;;;5026488;28;20456;-76
2024/01/04 00:05:38;;;;;;;0.63;0.20;;;9.80;95.40;;;;;;5012841;28;20581;-75
2024/01/04 00:08:05;;;;;;;0.60;0.27;;;9.70;96.50;;;;;;5037668;28;20493;-75
2024/01/04 00:10:32;;;;;;;0.60;0.20;;;9.60;97.10;;;;;;5011187;28;21224;-75
2024/01/04 00:12:59;;;;;;;0.40;0.20;;;9.60;96.80;;;;;;5038002;28;20520;-74
2024/01/04 00:15:26;;;;;;;0.30;0.20;;;9.60;97.10;;;;;;5046863;28;20919;-74
2024/01/04 00:17:54;;;;;;;0.40;0.30;;;9.50;97.30;;;;;;5024060;28;20473;-78
2024/01/04 00:20:24;;;;;;;0.77;0.30;;;9.50;97.10;;;;;;5012852;28;20452;-75
2024/01/04 00:22:51;;;;;;;1.03;0.30;;;9.50;97.20;;;;;;5005938;28;20464;-75
2024/01/04 00:25:18;;;;;;;3.60;0.30;;;9.50;97.00;;;;;;5082689;28;20484;-75
2024/01/04 00:27:45;;;;;;;0.50;0.30;;;9.40;97.00;;;;;;5046675;28;20460;-75
2024/01/04 00:30:12;;;;;;;0.40;0.20;;;9.50;97.10;;;;;;5012016;28;20524;-74
2024/01/04 00:32:39;;;;;;;0.50;0.30;;;9.50;96.80;;;;;;5044399;28;20441;-75
2024/01/04 00:35:08;;;;;;;0.30;0.20;;;9.40;97.10;;;;;;5070872;28;20539;-75
2024/01/04 00:37:35;;;;;;;0.40;0.20;;;9.50;97.00;;;;;;5053608;28;20924;-74
2024/01/04 00:40:02;;;;;;;0.40;0.20;;;9.40;97.60;;;;;;5002760;28;20481;-75
2024/01/04 00:42:29;;;;;;;0.40;0.20;;;9.30;97.50;;;;;;5004182;28;20509;-75
2024/01/04 00:44:56;;;;;;;0.40;0.20;;;9.30;97.90;;;;;;5000602;28;20523;-75
2024/01/04 00:47:23;;;;;;;1.47;0.20;;;9.30;98.00;;;;;;5001289;28;20476;-77
2024/01/04 00:49:51;;;;;;;0.83;0.20;;;9.40;97.60;;;;;;5012409;28;20502;-77
2024/01/04 00:52:19;;;;;;;0.73;0.20;;;9.50;97.40;;;;;;5005319;28;20574;-78
2024/01/04 00:54:46;;;;;;;1.47;0.27;;;9.50;97.20;;;;;;5003824;28;20500;-76
2024/01/04 00:57:13;;;;;;;0.30;0.20;;;9.50;97.30;;;;;;5006805;28;20819;-77
2024/01/04 00:59:40;;;;;;;0.30;0.20;;;9.50;97.80;;;;;;5014602;28;20447;-77
2024/01/04 01:02:08;;;;;;;0.83;0.23;;;9.40;99.30;;;;;;5005591;28;20470;-75
2024/01/04 01:04:36;;;;;;;4.10;0.20;;;9.40;98.60;;;;;;5007830;28;20454;-75
2024/01/04 01:07:03;;;;;;;0.40;0.30;;;9.30;99.90;;;;;;5006128;28;20509;-74
2024/01/04 01:09:31;;;;;;;0.30;0.20;;;9.00;99.90;;;;;;5004095;28;20998;-75
2024/01/04 01:11:58;;;;;;;0.40;0.20;;;8.60;99.90;;;;;;5013455;28;20521;-75
2024/01/04 01:14:25;;;;;;;0.60;0.20;;;8.40;99.90;;;;;;5006991;28;20447;-76
2024/01/04 01:16:52;;;;;;;4.67;0.30;;;8.10;99.90;;;;;;5013278;28;20475;-74
2024/01/04 01:19:19;;;;;;;0.40;0.20;;;7.90;99.90;;;;;;5023102;28;20475;-73
2024/01/04 01:21:46;;;;;;;0.30;0.10;;;7.80;99.90;;;;;;5005766;28;20969;-75
2024/01/04 01:24:13;;;;;;;0.30;0.20;;;7.70;99.90;;;;;;5005154;28;20457;-75
2024/01/04 01:26:42;;;;;;;0.30;0.10;;;7.70;99.90;;;;;;5016218;28;21211;-78
2024/01/04 01:29:09;;;;;;;0.40;0.20;;;7.70;99.90;;;;;;5007668;28;20972;-74
2024/01/04 01:31:42;;;;;;;0.60;0.20;;;7.80;99.90;;;;;;5005536;28;20514;-76
2024/01/04 01:34:09;;;;;;;0.37;0.20;;;7.80;99.90;;;;;;5005827;28;20510;-76
2024/01/04 01:36:35;;;;;;;0.30;0.20;;;7.80;99.90;;;;;;5005926;28;20503;-77
2024/01/04 01:39:03;;;;;;;0.40;0.20;;;7.70;99.90;;;;;;4996210;28;20817;-76
2024/01/04 01:41:30;;;;;;;0.30;0.20;;;7.70;99.90;;;;;;5002472;28;20553;-75
2024/01/04 01:43:58;;;;;;;0.30;0.20;;;7.60;99.90;;;;;;5005784;28;20456;-76
2024/01/04 01:46:25;;;;;;;0.40;0.20;;;7.80;99.90;;;;;;5001313;28;20466;-76
2024/01/04 01:48:52;;;;;;;0.30;0.20;;;7.70;99.90;;;;;;5005373;28;20475;-75
2024/01/04 01:51:19;;;;;;;0.30;0.20;;;7.70;99.90;;;;;;5005416;28;20515;-76
2024/01/04 01:53:46;;;;;;;0.53;0.20;;;7.70;99.90;;;;;;5005015;28;20466;-77
2024/01/04 01:56:14;;;;;;;0.40;0.20;;;7.70;99.90;;;;;;5005396;28;20456;-75
2024/01/04 01:58:42;;;;;;;0.40;0.20;;;7.60;99.90;;;;;;4996690;28;20499;-75
2024/01/04 02:01:10;;;;;;;0.70;0.20;;;7.60;99.90;;;;;;5012830;28;20539;-77
2024/01/04 02:03:38;;;;;;;0.40;0.20;;;7.60;99.90;;;;;;5028060;28;20496;-75
2024/01/04 02:06:06;;;;;;;0.50;0.20;;;7.60;99.90;;;;;;5006553;28;20447;-75
2024/01/04 02:08:33;;;;;;;0.30;0.20;;;7.50;99.90;;;;;;5006036;28;20541;-74
2024/01/04 02:11:00;;;;;;;0.40;0.20;;;7.50;99.90;;;;;;5004901;28;20482;-77
2024/01/04 02:13:27;;;;;;;0.40;0.20;;;7.50;99.90;;;;;;5030063;28;20458;-75
2024/01/04 02:15:54;;;;;;;0.40;0.20;;;7.60;99.90;;;;;;5003814;28;20531;-75
2024/01/04 02:18:23;;;;;;;0.30;0.20;;;7.60;99.90;;;;;;5022308;28;20573;-75
2024/01/04 02:20:49;;;;;;;0.30;0.20;;;7.50;99.90;;;;;;5011460;28;20535;-75
2024/01/04 02:23:19;;;;;;;0.40;0.20;;;7.60;99.90;;;;;;5007815;28;20511;-75
2024/01/04 02:25:46;;;;;;;0.40;0.20;;;7.60;99.90;;;;;;5013434;28;20448;-75
2024/01/04 02:28:12;;;;;;;0.30;0.20;;;7.60;99.90;;;;;;5009426;28;20521;-73
2024/01/04 02:30:39;;;;;;;0.40;0.20;;;7.50;99.90;;;;;;5038635;28;21504;-77
2024/01/04 02:33:06;;;;;;;0.90;0.20;;;7.50;99.90;;;;;;5003669;28;20466;-73
2024/01/04 02:35:33;;;;;;;0.70;0.20;;;7.60;99.90;;;;;;4996025;28;20943;-73
2024/01/04 02:38:00;;;;;;;0.73;0.40;;;7.70;99.90;;;;;;5004182;28;20455;-71
2024/01/04 02:40:29;;;;;;;0.40;0.20;;;7.80;99.90;;;;;;5002547;28;20544;-75
2024/01/04 02:42:56;;;;;;;0.43;0.20;;;7.80;99.90;;;;;;5009010;28;20463;-74
2024/01/04 02:45:23;;;;;;;0.40;0.20;;;7.90;99.90;;;;;;5004059;28;20502;-76
2024/01/04 02:47:50;;;;;;;1.43;0.30;;;7.80;99.90;;;;;;5005453;28;20960;-72
2024/01/04 02:50:18;;;;;;;0.40;0.20;;;7.90;99.90;;;;;;5010835;28;20498;-76
2024/01/04 02:52:45;;;;;;;0.40;0.20;;;8.00;99.90;;;;;;5004024;28;20521;-74
2024/01/04 02:55:12;;;;;;;0.40;0.20;;;8.10;99.90;;;;;;5006494;28;20451;-72
2024/01/04 02:57:40;;;;;;;0.30;0.20;;;8.20;99.90;;;;;;5014695;28;20526;-75
2024/01/04 03:00:08;;;;;;;0.97;0.30;;;8.20;99.90;;;;;;5008861;28;20491;-73
2024/01/04 03:02:35;;;;;;;1.13;0.20;;;8.30;99.90;;;;;;5005648;28;21605;-74
2024/01/04 03:05:02;;;;;;;0.40;0.20;;;8.30;99.90;;;;;;4999284;28;20566;-72
2024/01/04 03:07:29;;;;;;;0.40;0.20;;;8.40;99.90;;;;;;5004067;28;20456;-73
2024/01/04 03:09:56;;;;;;;0.50;0.20;;;8.50;99.90;;;;;;4998791;28;20466;-73
2024/01/04 03:12:23;;;;;;;0.43;0.20;;;8.60;99.90;;;;;;5016856;28;20514;-73
2024/01/04 03:14:51;;;;;;;0.50;0.30;;;8.50;99.90;;;;;;5002799;28;20556;-73
2024/01/04 03:17:18;;;;;;;0.40;0.20;;;8.60;99.90;;;;;;5024303;28;20523;-73
2024/01/04 03:19:45;;;;;;;1.70;0.20;;;8.60;99.90;;;;;;5000958;28;20453;-72
2024/01/04 03:22:12;;;;;;;0.80;0.20;;;8.60;99.90;;;;;;5004360;28;20471;-72
2024/01/04 03:24:39;;;;;;;0.47;0.33;;;8.60;99.90;;;;;;5004091;28;20504;-75
2024/01/04 03:27:06;;;;;;;0.30;0.20;;;8.70;99.90;;;;;;5003354;28;20512;-73
2024/01/04 03:29:33;;;;;;;0.40;0.20;;;8.80;99.60;;;;;;5000569;28;20491;-75
2024/01/04 03:32:02;;;;;;;0.40;0.20;;;8.80;99.50;;;;;;5003137;28;20521;-76
2024/01/04 03:34:29;;;;;;;0.40;0.20;;;8.70;99.90;;;;;;5018211;28;20474;-75
2024/01/04 03:36:56;;;;;;;0.50;0.30;;;8.70;99.70;;;;;;4999790;28;20480;-73
2024/01/04 03:39:23;;;;;;;2.87;0.20;;;8.60;99.90;;;;;;5002709;28;20968;-75
2024/01/04 03:41:50;;;;;;;0.30;0.20;;;8.50;99.90;;;;;;5002160;28;20494;-77
2024/01/04 03:44:17;;;;;;;0.80;0.20;;;8.50;99.90;;;;;;4999992;28;20475;-76
2024/01/04 03:46:44;;;;;;;0.50;0.20;;;8.70;99.50;;;;;;5002114;28;20540;-74
2024/01/04 03:49:12;;;;;;;0.47;0.30;;;8.60;99.90;;;;;;5008773;28;20517;-73
2024/01/04 03:51:39;;;;;;;0.30;0.20;;;8.60;99.80;;;;;;5001916;28;21164;-76
2024/01/04 03:54:06;;;;;;;2.20;0.20;;;8.60;99.90;;;;;;5006979;28;20493;-74
2024/01/04 03:56:33;;;;;;;0.40;0.20;;;8.60;99.60;;;;;;5003106;28;20466;-75
2024/01/04 03:59:00;;;;;;;0.60;0.20;;;8.60;99.10;;;;;;5006388;28;20500;-74
2024/01/04 04:01:27;;;;;;;0.77;0.20;;;8.90;97.60;;;;;;5001425;28;20533;-75
2024/01/04 04:03:54;;;;;;;3.33;0.30;;;8.90;97.90;;;;;;5007295;28;20544;-73
2024/01/04 04:06:22;;;;;;;0.40;0.20;;;8.90;98.30;;;;;;5002722;28;20453;-75
2024/01/04 04:08:49;;;;;;;0.40;0.30;;;8.80;98.90;;;;;;5003114;28;20456;-74
2024/01/04 04:11:17;;;;;;;0.40;0.20;;;8.70;99.30;;;;;;5002602;28;20534;-73
2024/01/04 04:13:44;;;;;;;0.70;0.20;;;8.80;98.50;;;;;;5005891;28;20459;-73
2024/01/04 04:16:11;;;;;;;1.07;0.20;;;8.80;98.80;;;;;;5002563;28;20879;-72
2024/01/04 04:18:38;;;;;;;1.00;0.30;;;8.80;97.80;;;;;;5021839;28;20937;-73
2024/01/04 04:21:05;;;;;;;0.83;0.20;;;9.10;96.00;;;;;;5005785;28;20475;-73
2024/01/04 04:23:34;;;;;;;0.30;0.20;;;9.00;97.10;;;;;;5002808;28;21026;-73
2024/01/04 04:26:05;;;;;;;1.70;0.20;;;9.00;95.80;;;;;;5012509;28;21122;-73
2024/01/04 04:28:32;;;;;;;0.40;0.20;;;9.10;96.20;;;;;;5003688;28;20872;-73
2024/01/04 04:30:59;;;;;;;1.07;0.20;;;9.10;95.90;;;;;;5011986;28;20553;-75
2024/01/04 04:33:26;;;;;;;0.40;0.20;;;9.10;95.60;;;;;;5006363;28;20533;-76
2024/01/04 04:35:53;;;;;;;0.40;0.20;;;9.00;96.00;;;;;;5022558;28;20442;-77
2024/01/04 04:38:21;;;;;;;0.30;0.20;;;9.00;95.90;;;;;;5010182;28;20446;-72
2024/01/04 04:40:50;;;;;;;2.10;0.23;;;9.00;95.90;;;;;;4997485;28;20464;-76
2024/01/04 04:43:17;;;;;;;1.27;0.20;;;9.00;95.50;;;;;;5007260;28;20470;-74
2024/01/04 04:45:44;;;;;;;0.67;0.20;;;9.00;95.90;;;;;;5010799;28;20553;-72
2024/01/04 04:48:10;;;;;;;0.80;0.30;;;9.00;96.40;;;;;;5006747;28;20863;-76
2024/01/04 04:50:37;;;;;;;3.53;0.20;;;9.00;96.40;;;;;;5011104;28;20551;-72
2024/01/04 04:53:05;;;;;;;1.33;0.33;;;8.90;97.60;;;;;;5008692;28;20550;-74
2024/01/04 04:55:33;;;;;;;0.30;0.20;;;8.80;97.80;;;;;;5001750;28;20474;-76
2024/01/04 04:58:01;;;;;;;0.40;0.20;;;8.80;97.70;;;;;;5005553;28;20471;-73
2024/01/04 05:00:28;;;;;;;0.30;0.20;;;8.80;98.00;;;;;;5006996;28;20528;-73
2024/01/04 05:02:55;;;;;;;1.23;0.20;;;8.80;98.00;;;;;;5006267;28;20454;-73
2024/01/04 05:05:22;;;;;;;0.87;0.20;;;8.70;98.90;;;;;;5014087;28;20527;-72
2024/01/04 05:07:49;;;;;;;0.90;0.20;;;8.80;98.20;;;;;;5034822;28;20523;-73
2024/01/04 05:10:16;;;;;;;0.50;0.30;;;8.80;98.60;;;;;;5006440;28;20531;-73
2024/01/04 05:12:43;;;;;;;1.23;0.27;;;8.70;99.90;;;;;;5016991;28;20540;-73
2024/01/04 05:15:11;;;;;;;0.40;0.30;;;8.60;99.90;;;;;;5007803;28;20540;-76
2024/01/04 05:17:38;;;;;;;0.40;0.20;;;8.50;99.90;;;;;;5023742;28;20534;-72
2024/01/04 05:20:06;;;;;;;2.53;0.30;;;8.50;99.90;;;;;;5013312;28;20497;-73
2024/01/04 05:22:33;;;;;;;1.00;0.30;;;8.50;99.90;;;;;;5003535;28;20547;-74
2024/01/04 05:25:00;;;;;;;0.30;0.17;;;8.40;99.90;;;;;;5007597;28;21019;-77
2024/01/04 05:27:27;;;;;;;0.50;0.20;;;8.40;99.90;;;;;;4999359;28;20820;-74
2024/01/04 05:29:55;;;;;;;0.50;0.20;;;8.40;99.90;;;;;;5005123;28;20542;-73
2024/01/04 05:32:23;;;;;;;0.40;0.20;;;8.40;99.90;;;;;;5019667;28;20973;-73
2024/01/04 05:34:50;;;;;;;0.40;0.20;;;8.40;99.10;;;;;;5006556;28;20509;-74
2024/01/04 05:37:17;;;;;;;1.63;0.40;;;8.50;99.10;;;;;;5004583;28;21022;-75
2024/01/04 05:39:45;;;;;;;1.60;0.40;;;8.40;98.90;;;;;;5005425;28;20477;-76
2024/01/04 05:42:12;;;;;;;0.40;0.20;;;8.50;98.70;;;;;;4999957;28;20805;-73
2024/01/04 05:44:39;;;;;;;0.40;0.20;;;8.60;98.50;;;;;;5009778;28;20451;-74
2024/01/04 05:47:07;;;;;;;0.50;0.20;;;8.70;98.00;;;;;;4997492;28;20942;-73
2024/01/04 05:49:36;;;;;;;0.40;0.20;;;8.90;96.90;;;;;;4997832;28;20468;-77
2024/01/04 05:52:03;;;;;;;0.40;0.20;;;8.90;96.80;;;;;;5000496;28;21051;-73
2024/01/04 05:54:31;;;;;;;0.50;0.30;;;8.90;97.40;;;;;;5005267;28;20507;-73
2024/01/04 05:56:58;;;;;;;0.40;0.20;;;8.80;97.80;;;;;;5004859;28;20474;-73
2024/01/04 05:59:25;;;;;;;0.73;0.47;;;8.90;96.80;;;;;;5006594;28;20467;-73
2024/01/04 06:01:52;;;;;;;0.80;0.20;;;8.90;97.60;;;;;;5011858;28;20839;-74
2024/01/04 06:04:19;;;;;;;0.50;0.20;;;8.90;96.90;;;;;;5003635;28;20471;-73
2024/01/04 06:06:48;;;;;;;0.40;0.20;;;8.90;97.30;;;;;;5005188;28;20503;-73
2024/01/04 06:09:20;;;;;;;0.40;0.20;;;8.90;97.40;;;;;;4992267;28;20544;-75
2024/01/04 06:11:47;;;;;;;0.73;0.30;;;9.00;97.40;;;;;;5005146;28;20974;-73
2024/01/04 06:14:14;;;;;;;0.80;0.20;;;8.90;97.80;;;;;;5005594;28;20520;-73
2024/01/04 06:16:41;;;;;;;0.40;0.20;;;9.00;97.60;;;;;;5022134;28;20525;-73
2024/01/04 06:19:08;;;;;;;0.43;0.30;;;8.90;98.40;;;;;;5020402;28;20513;-73
2024/01/04 06:21:34;;;;;;;0.30;0.20;;;8.80;98.90;;;;;;5033556;28;20460;-75
2024/01/04 06:24:03;;;;;;;0.30;0.20;;;8.80;99.20;;;;;;5034399;28;20502;-74
2024/01/04 06:26:30;;;;;;;2.40;0.20;;;8.80;99.30;;;;;;5024118;28;20506;-73
2024/01/04 06:28:57;;;;;;;0.40;0.20;;;8.70;99.50;;;;;;5036437;28;20470;-73
2024/01/04 06:31:24;;;;;;;1.03;0.30;;;8.60;99.90;;;;;;5005651;28;20494;-75
2024/01/04 06:33:51;;;;;;;0.40;0.20;;;8.60;99.90;;;;;;5017348;28;20565;-76
2024/01/04 06:36:17;;;;;;;1.13;0.40;;;8.50;99.90;;;;;;5020820;28;20558;-73
2024/01/04 06:38:46;;;;;;;0.37;0.20;;;8.40;99.90;;;;;;5026339;28;20522;-73
2024/01/04 06:41:14;;;;;;;1.23;0.50;;;8.40;99.90;;;;;;5003596;28;20474;-74
2024/01/04 06:43:41;;;;;;;0.97;0.30;;;8.40;99.90;;;;;;5033869;28;20542;-73
2024/01/04 06:46:08;;;;;;;1.70;0.20;;;8.50;99.90;;;;;;5019562;28;20477;-73
2024/01/04 06:48:35;;;;;;;1.37;0.20;;;8.50;99.90;;;;;;5005818;28;20499;-74
2024/01/04 06:51:02;;;;;;;0.60;0.20;;;8.60;99.80;;;;;;5009570;28;20437;-80
2024/01/04 06:53:29;;;;;;;0.30;0.10;;;8.70;99.70;;;;;;5014851;28;20509;-71
2024/01/04 06:55:56;;;;;;;0.50;0.20;;;8.60;99.90;;;;;;4999801;28;20545;-77
2024/01/04 06:58:26;;;;;;;0.40;0.30;;;8.40;99.90;;;;;;5020242;28;20952;-77
2024/01/04 07:00:53;;;;;;;0.50;0.20;;;8.40;99.90;;;;;;5005218;28;20471;-76
2024/01/04 07:03:20;;;;;;;0.40;0.20;;;8.40;99.90;;;;;;4999530;28;20523;-82
2024/01/04 07:05:47;;;;;;;0.30;0.20;;;8.40;99.90;;;;;;5021784;28;20520;-79
2024/01/04 07:08:15;;;;;;;0.83;0.20;;;8.30;99.90;;;;;;5031429;28;20544;-78
2024/01/04 07:10:43;;;;;;;4.13;0.60;;;8.30;99.90;;;;;;5021326;28;20492;-75
2024/01/04 07:13:10;;;;;;;0.63;0.40;;;8.30;99.90;;;;;;5014996;28;20494;-79
2024/01/04 07:15:39;;;;;;;0.90;0.27;;;8.30;99.90;;;;;;4999583;28;20521;-79
2024/01/04 07:18:07;;;;;;;0.97;0.37;;;8.20;99.90;;;;;;5031795;28;20555;-77
2024/01/04 07:20:34;;;;;;;0.57;0.30;;;8.20;99.90;;;;;;5026827;28;20560;-79
2024/01/04 07:23:01;;;;;;;1.17;0.60;;;8.20;99.90;;;;;;5039638;28;20472;-76
2024/01/04 07:25:30;;;;;;;1.37;0.20;;;8.20;99.90;;;;;;5006929;28;20916;-76
2024/01/04 07:27:57;;;;;;;0.40;0.30;;;8.20;99.90;;;;;;5070209;28;20982;-79
2024/01/04 07:30:24;;;;;;;0.73;0.40;;;8.20;99.90;;;;;;5025140;28;20464;-75
2024/01/04 07:32:52;;;;;;;2.10;0.40;;;8.20;99.90;;;;;;5002247;28;20516;-78
2024/01/04 07:35:23;;;;;;;0.40;0.20;;;8.20;99.90;;;;;;5016828;28;20501;-76
2024/01/04 07:37:50;;;;;;;1.07;0.20;;;8.20;99.90;;;;;;5038550;28;20460;-79
2024/01/04 07:40:17;;;;;;;1.53;0.30;;;8.10;99.90;;;;;;5032774;28;20469;-79
2024/01/04 07:42:44;;;;;;;0.30;0.20;;;8.00;99.90;;;;;;5003594;28;20503;-75
2024/01/04 07:45:11;;;;;;;1.73;0.23;;;8.00;99.90;;;;;;5022751;28;20504;-76
2024/01/04 07:47:38;;;;;;;0.50;0.20;;;8.00;99.90;;;;;;5008014;28;20462;-75
2024/01/04 07:50:08;;;;;;;0.77;0.40;;;8.00;99.90;;;;;;5004028;28;20469;-79
2024/01/04 07:52:35;;;;;;;0.30;0.20;;;7.80;99.90;;;;;;5009960;28;20538;-76
2024/01/04 07:55:02;;;;;;;0.40;0.30;;;7.80;99.90;;;;;;5012912;28;20855;-76
2024/01/04 07:57:31;;;;;;;1.33;0.60;;;7.80;99.90;;;;;;5011145;28;20507;-76
2024/01/04 07:59:58;;;;;;;0.73;0.70;;;7.60;99.90;;;;;;5018604;28;20816;-77
2024/01/04 08:02:28;;;;;;;0.90;0.50;;;7.50;99.90;;;;;;5011126;28;20478;-76
2024/01/04 08:04:56;;;;;;;1.13;0.30;;;7.40;99.90;;;;;;5009829;28;20480;-77
2024/01/04 08:07:25;;;;;;;1.10;0.40;;;7.30;99.90;;;;;;5013699;28;20469;-77
2024/01/04 08:09:52;;;;;;;1.53;0.50;;;7.40;99.90;;;;;;5040179;28;20449;-80
2024/01/04 08:12:19;;;;;;;4.97;3.20;;;7.40;99.90;;;;;;5022000;28;20477;-76
2024/01/04 08:14:46;;;;;;;0.77;0.40;;;7.30;99.90;;;;;;5009166;28;20478;-81
2024/01/04 08:17:13;;;;;;;1.67;0.40;;;7.20;99.90;;;;;;5030396;28;20514;-71
2024/01/04 08:19:39;;;;;;;1.63;0.30;;;7.10;99.90;;;;;;5044475;28;20514;-76
2024/01/04 08:22:07;;;;;;;0.60;0.30;;;7.10;99.90;;;;;;5024796;28;20474;-76
2024/01/04 08:24:36;;;;;;;0.70;0.50;;;7.00;99.90;;;;;;5030633;28;20489;-78
2024/01/04 08:27:03;;;;;;;0.40;0.20;;;7.00;99.90;;;;;;5030657;28;20498;-77
2024/01/04 08:29:30;;;;;;;0.40;0.33;;;7.10;99.90;;;;;;5008981;28;20558;-76
2024/01/04 08:31:57;;;;;;;2.27;0.30;;;7.10;99.90;;;;;;5016676;28;20522;-78
2024/01/04 08:34:24;;;;;;;0.40;0.30;;;7.20;99.90;;;;;;5006214;28;20579;-75
2024/01/04 08:36:51;;;;;;;0.60;0.30;;;7.20;99.90;;;;;;5075555;28;20518;-77
2024/01/04 08:39:18;;;;;;;0.40;0.30;;;7.40;99.90;;;;;;5023395;28;20464;-78
2024/01/04 08:41:46;;;;;;;0.60;0.50;;;7.40;99.90;;;;;;5048946;28;20465;-77
2024/01/04 08:44:14;;;;;;;0.50;0.40;;;7.30;99.90;;;;;;5031301;28;20463;-76
2024/01/04 08:46:40;;;;;;;2.00;0.40;;;7.40;99.90;;;;;;5036368;28;20498;-78
2024/01/04 08:49:08;;;;;;;0.87;0.60;;;7.60;99.90;;;;;;5013240;28;20929;-75
2024/01/04 08:51:35;;;;;;;1.97;0.80;;;7.60;99.90;;;;;;4998000;28;20470;-77
2024/01/04 08:54:02;;;;;;;1.53;0.90;;;7.60;99.90;;;;;;4999861;28;20492;-77
2024/01/04 08:56:28;;;;;;;0.60;0.30;;;7.60;99.90;;;;;;5004213;28;21029;-75
2024/01/04 08:58:57;;;;;;;0.90;0.60;;;7.60;99.90;;;;;;4998939;28;20517;-76
2024/01/04 09:01:24;;;;;;;0.70;0.43;;;7.70;99.90;;;;;;5001395;28;20855;-78
2024/01/04 09:03:52;;;;;;;0.50;0.40;;;7.60;99.90;;;;;;5004335;28;20517;-76
2024/01/04 09:06:19;;;;;;;0.60;0.60;;;7.60;99.90;;;;;;4999812;28;20477;-75
2024/01/04 09:08:46;;;;;;;1.30;1.20;;;7.50;99.90;;;;;;5000928;28;20504;-77
2024/01/04 09:11:13;;;;;;;1.50;0.57;;;7.50;99.90;;;;;;5003605;28;20810;-76
2024/01/04 09:13:40;;;;;;;2.60;0.50;;;7.40;99.90;;;;;;5001385;28;20486;-76
2024/01/04 09:16:08;;;;;;;0.40;0.20;;;7.50;99.90;;;;;;5005851;28;20544;-80
2024/01/04 09:18:36;;;;;;;1.37;0.40;;;7.50;99.90;;;;;;5023567;28;20486;-76
2024/01/04 09:21:03;;;;;;;0.83;0.40;;;7.60;99.90;;;;;;5005198;28;20477;-76
2024/01/04 09:23:30;;;;;;;0.40;0.23;;;7.70;99.90;;;;;;5005705;28;20450;-78
2024/01/04 09:25:57;;;;;;;1.23;0.30;;;7.70;99.90;;;;;;5004128;28;20517;-75
2024/01/04 09:28:25;;;;;;;1.37;0.30;;;7.70;99.90;;;;;;4994661;28;20530;-76
2024/01/04 09:30:52;;;;;;;0.40;0.20;;;7.80;99.90;;;;;;5004689;28;20462;-78
2024/01/04 09:33:23;;;;;;;0.40;0.20;;;7.90;99.90;;;;;;5004270;28;21101;-76
2024/01/04 09:35:50;;;;;;;1.10;0.50;;;7.90;99.90;;;;;;5022283;28;20924;-75
2024/01/04 09:38:19;;;;;;;0.67;0.30;;;8.00;99.90;;;;;;5015289;28;20530;-76
2024/01/04 09:40:52;;;;;;;0.40;0.20;;;8.10;99.90;;;;;;5014598;28;20486;-76
2024/01/04 09:43:20;;;;;;;0.50;0.20;;;8.10;99.90;;;;;;5000351;28;20472;-77
2024/01/04 09:45:48;;;;;;;0.40;0.20;;;8.20;99.90;;;;;;5005260;28;20447;-77
2024/01/04 09:48:23;;;;;;;0.40;0.30;;;8.10;99.90;;;;;;4999928;28;21015;-76
2024/01/04 09:50:50;;;;;;;0.73;0.30;;;8.00;99.90;;;;;;5004393;28;20597;-79
2024/01/04 09:53:18;;;;;;;0.90;0.57;;;7.90;99.90;;;;;;5005759;28;20550;-79
2024/01/04 09:55:45;;;;;;;0.40;0.27;;;7.80;99.90;;;;;;5011427;28;20478;-76
2024/01/04 09:58:12;;;;;;;1.03;0.63;;;7.60;99.90;;;;;;5005867;28;20976;-77
2024/01/04 10:00:39;;;;;;;0.50;0.30;;;7.40;99.90;;;;;;5006095;28;20505;-78
2024/01/04 10:03:12;;;;;;;0.80;0.20;;;7.20;99.90;;;;;;5004505;28;20498;-77
2024/01/04 10:05:42;;;;;;;0.40;0.30;;;7.10;99.90;;;;;;5004769;28;20488;-80
2024/01/04 10:08:16;;;;;;;1.13;0.30;;;7.00;99.90;;;;;;5004556;28;20547;-76
2024/01/04 10:10:45;;;;;;;0.70;0.30;;;7.00;99.90;;;;;;5010468;28;20502;-78
2024/01/04 10:13:12;;;;;;;0.50;0.30;;;7.00;99.90;;;;;;5000040;28;20553;-76
2024/01/04 10:15:47;;;;;;;0.60;0.30;;;7.10;99.90;;;;;;5004939;28;20517;-78
2024/01/04 10:18:14;;;;;;;0.57;0.23;;;7.10;99.90;;;;;;5038254;28;20473;-80
2024/01/04 10:20:42;;;;;;;0.53;0.20;;;7.10;99.90;;;;;;5014315;28;20474;-77
2024/01/04 10:23:12;;;;;;;0.60;0.20;;;7.20;99.90;;;;;;5012021;28;20462;-76
2024/01/04 10:25:38;;;;;;;0.40;0.20;;;7.20;99.90;;;;;;5018811;28;20465;-80
2024/01/04 10:28:06;;;;;;;0.40;0.20;;;7.30;99.90;;;;;;5012911;28;20462;-80
2024/01/04 10:30:33;;;;;;;0.80;0.20;;;7.30;99.90;;;;;;5006964;28;21155;-78
2024/01/04 10:33:00;;;;;;;0.40;0.20;;;7.30;99.90;;;;;;5015589;28;20513;-77
2024/01/04 10:35:29;;;;;;;0.40;0.20;;;7.40;99.90;;;;;;5015112;28;21005;-79
2024/01/04 10:37:59;;;;;;;4.23;0.40;;;7.50;99.90;;;;;;5009509;28;20497;-77
2024/01/04 10:40:26;;;;;;;0.50;0.27;;;7.50;99.90;;;;;;5004151;28;20879;-75
2024/01/04 10:42:54;;;;;;;1.17;0.20;;;7.50;99.90;;;;;;5021196;28;20468;-75
2024/01/04 10:45:30;;;;;;;0.80;0.30;;;7.60;99.90;;;;;;5041264;28;20473;-79
2024/01/04 10:47:57;;;;;;;0.50;0.23;;;7.90;99.90;;;;;;5015561;28;20478;-76
2024/01/04 10:50:25;;;;;;;0.50;0.30;;;7.80;99.90;;;;;;5000551;28;20548;-80
2024/01/04 10:52:53;;;;;;;0.50;0.30;;;7.70;99.90;;;;;;5001736;28;20446;-77
2024/01/04 10:55:22;;;;;;;0.40;0.20;;;7.70;99.90;;;;;;4998313;28;20494;-76
2024/01/04 10:57:50;;;;;;;1.57;0.30;;;7.90;99.90;;;;;;4997725;28;20515;-76
2024/01/04 11:00:19;;;;;;;0.63;0.30;;;8.00;99.90;;;;;;5003206;28;20770;-75
2024/01/04 11:02:47;;;;;;;0.50;0.30;;;8.10;99.90;;;;;;5002251;28;20506;-76
2024/01/04 11:05:15;;;;;;;0.87;0.20;;;8.20;99.90;;;;;;5007784;28;20489;-79
2024/01/04 11:07:44;;;;;;;0.63;0.30;;;8.30;99.90;;;;;;5005854;28;20466;-79
2024/01/04 11:10:14;;;;;;;0.50;0.30;;;8.30;99.90;;;;;;5010891;28;21267;-81
2024/01/04 11:12:43;;;;;;;0.40;0.20;;;8.20;99.90;;;;;;5004209;28;20478;-76
2024/01/04 11:15:12;;;;;;;0.50;0.30;;;8.20;99.90;;;;;;5011195;28;20485;-79
2024/01/04 11:18:03;;;;;;;0.70;0.30;;;8.10;99.90;;;;;;5004962;28;21150;-76
2024/01/04 11:20:42;;;;;;;1.13;0.20;;;8.20;99.90;;;;;;5007520;28;20924;-76
2024/01/04 11:23:37;;;;;;;0.40;0.30;;;8.20;99.90;;;;;;5001642;28;20457;-79
2024/01/04 11:26:26;;;;;;;1.07;0.30;;;8.30;99.90;;;;;;5000245;28;20488;-78
2024/01/04 11:28:56;;;;;;;2.40;0.33;;;8.30;99.90;;;;;;4999805;28;20479;-78
2024/01/04 11:31:24;;;;;;;0.50;0.20;;;8.30;99.90;;;;;;5002835;28;20558;-76
2024/01/04 11:33:51;;;;;;;0.80;0.80;;;8.30;99.90;;;;;;5002719;28;20940;-75
2024/01/04 11:36:19;;;;;;;0.50;0.40;;;8.30;99.90;;;;;;5002463;28;20549;-79
2024/01/04 11:38:47;;;;;;;2.57;0.30;;;8.30;99.90;;;;;;5006514;28;20467;-75
2024/01/04 11:41:14;;;;;;;0.50;0.40;;;8.30;99.90;;;;;;5006681;28;20514;-75
2024/01/04 11:43:43;;;;;;;2.60;0.63;;;8.20;99.90;;;;;;4996432;28;20470;-76
2024/01/04 11:46:23;;;;;;;0.63;0.40;;;8.10;99.90;;;;;;5011691;28;20693;-77
2024/01/04 11:49:00;;;;;;;0.60;0.23;;;8.10;99.90;;;;;;4999703;28;21054;-76
2024/01/04 11:51:35;;;;;;;1.30;0.80;;;8.10;99.90;;;;;;4995866;28;20466;-79
2024/01/04 11:54:02;;;;;;;2.30;0.70;;;8.30;99.90;;;;;;5000746;28;20493;-76
2024/01/04 11:56:29;;;;;;;1.10;0.70;;;8.40;99.90;;;;;;5001674;28;20474;-78
2024/01/04 11:59:07;;;;;;;1.27;0.40;;;8.40;99.90;;;;;;5002787;28;20456;-80
2024/01/04 12:01:37;;;;;;;1.57;0.30;;;8.60;99.90;;;;;;5006163;28;20465;-75
2024/01/04 12:04:12;;;;;;;1.80;0.30;;;8.60;99.90;;;;;;4999816;28;20557;-79
2024/01/04 12:06:40;;;;;;;0.90;0.30;;;8.60;99.90;;;;;;5000857;28;20456;-80
2024/01/04 12:09:07;;;;;;;2.63;0.40;;;8.70;99.90;;;;;;5002743;28;20523;-77
2024/01/04 12:11:35;;;;;;;0.87;0.30;;;8.90;99.90;;;;;;5009516;28;20552;-80
2024/01/04 12:14:03;;;;;;;0.50;0.40;;;8.90;99.90;;;;;;4999677;28;20498;-79
2024/01/04 12:16:30;;;;;;;3.63;1.47;;;8.90;99.90;;;;;;5011086;28;20537;-79
2024/01/04 12:19:01;;;;;;;0.90;0.40;;;8.90;99.90;;;;;;5004949;28;20488;-77
2024/01/04 12:21:28;;;;;;;0.40;0.33;;;8.90;99.90;;;;;;5008840;28;20491;-77
2024/01/04 12:23:55;;;;;;;0.90;0.30;;;9.00;99.90;;;;;;5017186;28;20631;-77
2024/01/04 12:26:24;;;;;;;0.60;0.30;;;8.90;99.90;;;;;;5034939;28;20492;-77
2024/01/04 12:28:52;;;;;;;1.23;0.40;;;8.90;99.90;;;;;;5029043;28;20531;-77
2024/01/04 12:31:19;;;;;;;1.00;0.40;;;8.90;99.90;;;;;;5017445;28;20888;-80
2024/01/04 12:33:50;;;;;;;3.10;0.60;;;8.90;99.90;;;;;;5016781;28;20448;-76
2024/01/04 12:36:22;;;;;;;0.40;0.20;;;8.90;99.90;;;;;;5039197;28;20462;-77
2024/01/04 12:38:50;;;;;;;1.17;0.30;;;8.90;99.90;;;;;;5020555;28;20463;-76
2024/01/04 12:41:25;;;;;;;1.40;0.83;;;8.70;99.90;;;;;;5007593;28;20466;-77
2024/01/04 12:43:53;;;;;;;0.50;0.40;;;8.60;99.90;;;;;;5070067;28;20446;-76
2024/01/04 12:46:21;;;;;;;1.33;0.40;;;8.50;99.90;;;;;;5024079;28;20521;-78
2024/01/04 12:48:48;;;;;;;5.77;0.50;;;8.50;99.90;;;;;;5001080;28;20483;-76
2024/01/04 12:51:15;;;;;;;0.73;0.40;;;8.50;99.90;;;;;;5001598;28;20829;-80
2024/01/04 12:53:45;;;;;;;3.93;0.80;;;8.80;99.90;;;;;;5006671;28;20494;-77
2024/01/04 12:56:12;;;;;;;2.17;1.10;;;8.90;99.90;;;;;;5040595;28;20489;-75
2024/01/04 12:58:39;;;;;;;2.00;0.83;;;9.00;99.90;;;;;;5006597;28;20468;-77
2024/01/04 13:01:06;;;;;;;1.60;0.80;;;9.10;99.90;;;;;;5078191;28;20515;-80